createdAt,value
2022-10-12T00:00:24.778Z,1.67
2022-10-12T00:05:30.125Z,1.73
2022-10-12T00:10:37.275Z,1.90
2022-10-12T00:15:43.688Z,1.63
2022-10-12T00:20:49.127Z,1.40
2022-10-12T00:25:54.511Z,1.40
2022-10-12T00:31:00.525Z,1.60
2022-10-12T00:36:17.547Z,1.30
2022-10-12T00:41:26.144Z,1.93
2022-10-12T00:46:43.695Z,1.63
2022-10-12T00:52:00.468Z,1.80
2022-10-12T00:57:08.684Z,1.90
2022-10-12T01:02:15.227Z,2.00
2022-10-12T01:07:20.676Z,2.03
2022-10-12T01:12:27.668Z,1.90
2022-10-12T01:17:58.600Z,1.70
2022-10-12T01:23:29.231Z,1.73
2022-10-12T01:28:52.783Z,2.03
2022-10-12T01:34:01.230Z,1.50
2022-10-12T01:39:15.541Z,2.10
2022-10-12T01:44:24.195Z,1.73
2022-10-12T01:49:32.641Z,1.80
2022-10-12T01:54:46.562Z,1.80
2022-10-12T01:59:55.060Z,1.57
2022-10-12T02:05:06.118Z,1.77
2022-10-12T02:10:17.436Z,1.80
2022-10-12T02:15:26.067Z,1.43
2022-10-12T02:20:34.090Z,1.80
2022-10-12T02:25:41.523Z,1.67
2022-10-12T02:30:58.882Z,1.73
2022-10-12T02:36:28.319Z,1.87
2022-10-12T02:41:36.744Z,1.33
2022-10-12T02:46:44.230Z,1.43
2022-10-12T02:51:50.392Z,1.60
2022-10-12T02:56:55.848Z,1.90
2022-10-12T03:02:01.379Z,1.77
2022-10-12T03:07:06.846Z,1.57
2022-10-12T03:12:12.311Z,1.60
2022-10-12T03:17:17.766Z,1.60
2022-10-12T03:22:23.234Z,1.80
2022-10-12T03:27:28.754Z,2.13
2022-10-12T03:32:34.549Z,1.90
2022-10-12T03:37:40.316Z,1.90
2022-10-12T03:42:46.337Z,2.17
2022-10-12T03:47:51.744Z,1.93
2022-10-12T03:52:57.303Z,1.70
2022-10-12T03:58:03.865Z,1.57
2022-10-12T04:03:11.121Z,1.87
2022-10-12T04:08:17.447Z,1.63
2022-10-12T04:13:23.828Z,2.03
2022-10-12T04:18:29.351Z,2.00
2022-10-12T04:23:36.305Z,1.90
2022-10-12T04:28:41.792Z,2.43
2022-10-12T04:33:47.848Z,1.83
2022-10-12T04:38:58.440Z,2.47
2022-10-12T04:44:01.388Z,2.13
2022-10-12T04:49:06.926Z,1.50
2022-10-12T04:54:13.025Z,1.97
2022-10-12T04:59:18.562Z,2.30
2022-10-12T05:04:24.202Z,2.10
2022-10-12T05:09:29.749Z,2.40
2022-10-12T05:14:36.407Z,1.90
2022-10-12T05:19:41.861Z,2.50
2022-10-12T05:24:52.751Z,2.10
2022-10-12T05:29:54.621Z,2.97
2022-10-12T05:35:00.171Z,2.00
2022-10-12T05:40:06.271Z,1.83
2022-10-12T05:45:13.294Z,2.27
2022-10-12T05:50:18.892Z,1.80
2022-10-12T05:55:24.339Z,1.87
2022-10-12T06:00:29.806Z,1.70
2022-10-12T06:05:35.274Z,2.03
2022-10-12T06:10:46.549Z,2.10
2022-10-12T06:15:51.972Z,2.03
2022-10-12T06:21:28.499Z,2.20
2022-10-12T06:26:05.036Z,1.70
2022-10-12T06:31:11.353Z,1.73
2022-10-12T06:36:17.135Z,1.73
2022-10-12T06:41:23.545Z,2.20
2022-10-12T06:46:29.338Z,1.80
2022-10-12T06:51:34.860Z,1.90
2022-10-12T06:56:40.554Z,2.03
2022-10-12T07:01:46.113Z,1.77
2022-10-12T07:06:51.771Z,2.17
2022-10-12T07:11:57.221Z,2.10
2022-10-12T07:17:02.671Z,1.97
2022-10-12T07:22:09.439Z,1.83
2022-10-12T07:27:15.029Z,1.60
2022-10-12T07:32:20.812Z,2.00
2022-10-12T07:37:26.411Z,2.43
2022-10-12T07:42:31.862Z,1.90
2022-10-12T07:47:37.707Z,1.90
2022-10-12T07:52:43.509Z,1.70
2022-10-12T07:57:49.071Z,2.20
2022-10-12T08:02:54.512Z,2.00
2022-10-12T08:08:00.386Z,2.47
2022-10-12T08:13:06.530Z,2.03
2022-10-12T08:18:11.957Z,1.70
2022-10-12T08:23:17.403Z,1.97
2022-10-12T08:28:23.936Z,3.67
2022-10-12T08:33:31.013Z,1.87
2022-10-12T08:38:39.375Z,2.07
2022-10-12T08:43:47.800Z,2.37
2022-10-12T08:49:05.440Z,2.20
2022-10-12T08:54:13.869Z,2.10
2022-10-12T08:59:20.596Z,2.23
2022-10-12T09:04:40.692Z,2.20
2022-10-12T09:10:11.785Z,2.10
2022-10-12T09:15:20.208Z,1.93
2022-10-12T09:20:31.466Z,2.10
2022-10-12T09:25:37.153Z,1.97
2022-10-12T09:30:45.587Z,2.00
2022-10-12T09:35:51.745Z,2.40
2022-10-12T09:40:57.258Z,1.93
2022-10-12T09:46:04.878Z,1.97
2022-10-12T09:51:12.054Z,2.20
2022-10-12T09:56:40.243Z,2.17
2022-10-12T10:01:48.717Z,2.50
2022-10-12T10:06:54.583Z,2.37
2022-10-12T10:12:15.019Z,1.73
2022-10-12T10:17:29.587Z,2.07
2022-10-12T10:22:35.118Z,2.37
2022-10-12T10:27:41.652Z,2.23
2022-10-12T10:32:48.646Z,2.00
2022-10-12T10:37:57.365Z,2.07
2022-10-12T10:43:09.634Z,2.20
2022-10-12T10:48:20.878Z,2.43
2022-10-12T10:53:28.416Z,2.00
2022-10-12T10:58:45.837Z,2.33
2022-10-12T11:03:54.365Z,1.97
2022-10-12T11:09:03.966Z,1.70
2022-10-12T11:14:21.834Z,1.67
2022-10-12T11:19:54.990Z,1.40
2022-10-12T11:25:03.583Z,1.40
2022-10-12T11:30:12.233Z,1.80
2022-10-12T11:35:29.690Z,2.40
2022-10-12T11:41:02.409Z,1.57
2022-10-12T11:45:50.864Z,1.57
2022-10-12T11:51:03.910Z,1.90
2022-10-12T11:56:15.225Z,1.63
2022-10-12T12:01:42.600Z,1.80
2022-10-12T12:07:02.258Z,1.67
2022-10-12T12:12:22.907Z,1.73
2022-10-12T12:17:32.338Z,1.87
2022-10-12T12:22:56.177Z,1.60
2022-10-12T12:28:10.292Z,1.60
2022-10-12T12:33:25.093Z,0.80
2022-10-12T12:38:48.201Z,0.73
2022-10-12T12:43:57.093Z,0.80
2022-10-12T12:49:03.621Z,1.00
2022-10-12T12:54:18.047Z,1.03
2022-10-12T12:59:32.402Z,1.53
2022-10-12T13:04:45.816Z,1.13
2022-10-12T13:10:00.801Z,1.00
2022-10-12T13:15:36.783Z,1.77
2022-10-12T13:20:44.654Z,0.97
2022-10-12T13:25:56.942Z,1.10
2022-10-12T13:31:03.581Z,1.20
2022-10-12T13:36:30.725Z,1.60
2022-10-12T13:41:37.127Z,1.13
2022-10-12T13:46:48.346Z,1.10
2022-10-12T13:51:57.027Z,0.97
2022-10-12T14:02:20.793Z,1.07
2022-10-12T14:07:35.493Z,1.17
2022-10-12T14:12:42.430Z,1.50
2022-10-12T14:17:51.785Z,2.10
2022-10-12T14:22:59.375Z,1.43
2022-10-12T14:28:07.756Z,1.90
2022-10-12T14:33:32.617Z,2.10
2022-10-12T14:38:46.972Z,2.13
2022-10-12T14:44:17.623Z,1.97
2022-10-12T14:49:28.992Z,1.93
2022-10-12T14:54:34.581Z,2.50
2022-10-12T14:59:40.189Z,2.63
2022-10-12T15:04:46.377Z,2.50
2022-10-12T15:09:53.199Z,2.97
2022-10-12T15:15:01.267Z,2.47
2022-10-12T15:20:07.578Z,2.80
2022-10-12T15:25:23.143Z,3.17
2022-10-12T15:30:28.942Z,2.70
2022-10-12T15:35:36.923Z,2.30
2022-10-12T15:40:46.192Z,2.30
2022-10-12T15:45:51.835Z,2.50
2022-10-12T15:50:57.440Z,2.13
2022-10-12T15:56:02.865Z,2.30
2022-10-12T16:01:08.486Z,2.30
2022-10-12T16:06:15.119Z,2.50
2022-10-12T16:11:21.345Z,3.17
2022-10-12T16:16:26.856Z,2.67
2022-10-12T16:21:32.298Z,2.33
2022-10-12T16:26:42.654Z,2.73
2022-10-12T16:31:45.068Z,2.60
2022-10-12T16:36:50.587Z,3.30
2022-10-12T16:41:56.785Z,2.80
2022-10-12T16:47:02.411Z,2.87
2022-10-12T16:52:08.572Z,2.97
2022-10-12T16:57:14.463Z,2.70
2022-10-12T17:02:22.355Z,2.00
2022-10-12T17:07:27.804Z,2.40
2022-10-12T17:12:33.195Z,2.20
2022-10-12T17:17:38.625Z,2.20
2022-10-12T17:22:44.406Z,2.10
2022-10-12T17:27:49.878Z,2.30
2022-10-12T17:32:55.342Z,2.20
2022-10-12T17:38:00.861Z,1.90
2022-10-12T17:43:06.378Z,2.40
2022-10-12T17:48:13.533Z,2.27
2022-10-12T17:53:19.215Z,2.40
2022-10-12T17:58:24.929Z,2.72
2022-10-12T18:03:30.597Z,2.00
2022-10-12T18:08:37.046Z,3.70
2022-10-12T18:13:44.106Z,2.40
2022-10-12T18:18:51.562Z,2.40
2022-10-12T18:23:58.024Z,2.00
2022-10-12T18:29:03.609Z,1.97
2022-10-12T18:34:09.209Z,2.43
2022-10-12T18:39:15.426Z,2.33
2022-10-12T18:44:21.439Z,2.10
2022-10-12T18:49:26.895Z,1.97
2022-10-12T18:54:32.338Z,1.83
2022-10-12T18:59:38.951Z,2.10
2022-10-12T19:04:44.570Z,2.33
2022-10-12T19:09:50.082Z,3.13
2022-10-12T19:14:55.535Z,2.97
2022-10-12T19:20:02.995Z,3.13
2022-10-12T19:25:09.563Z,3.07
2022-10-12T19:30:15.762Z,3.00
2022-10-12T19:35:23.594Z,3.23
2022-10-12T19:40:31.097Z,3.60
2022-10-12T19:45:41.517Z,3.03
2022-10-12T19:50:47.372Z,2.83
2022-10-12T19:55:53.104Z,2.90
2022-10-12T20:01:11.968Z,2.60
2022-10-12T20:06:28.666Z,2.33
2022-10-12T20:11:35.867Z,2.50
2022-10-12T20:16:41.416Z,2.40
2022-10-12T20:21:46.859Z,2.40
2022-10-12T20:26:52.454Z,2.60
2022-10-12T20:31:57.830Z,2.50
2022-10-12T20:37:03.221Z,1.77
2022-10-12T20:42:08.787Z,2.40
2022-10-12T20:47:21.520Z,2.67
2022-10-12T20:52:27.306Z,3.20
2022-10-12T20:57:33.097Z,2.10
2022-10-12T21:02:38.815Z,2.27
2022-10-12T21:07:44.342Z,2.80
2022-10-12T21:12:49.789Z,2.50
2022-10-12T21:17:55.234Z,2.80
2022-10-12T21:23:00.726Z,2.50
2022-10-12T21:28:06.313Z,2.80
2022-10-12T21:33:11.854Z,2.70
2022-10-12T21:38:18.311Z,3.27
2022-10-12T21:43:23.812Z,3.43
2022-10-12T21:48:29.256Z,3.07
2022-10-12T21:53:36.495Z,2.50
2022-10-12T21:58:42.008Z,2.80
2022-10-12T22:03:48.458Z,2.80
2022-10-12T22:08:57.199Z,3.40
2022-10-12T22:14:05.529Z,3.13
2022-10-12T22:19:14.477Z,3.37
2022-10-12T22:24:20.798Z,3.43
2022-10-12T22:29:26.245Z,3.53
2022-10-12T22:34:31.841Z,2.93
2022-10-12T22:39:37.295Z,3.20
2022-10-12T22:44:42.805Z,2.80
2022-10-12T22:49:48.268Z,3.40
2022-10-12T22:54:53.911Z,3.70
2022-10-12T22:59:59.683Z,3.47
2022-10-12T23:05:07.540Z,4.30
2022-10-12T23:10:13.073Z,3.97
2022-10-12T23:15:18.709Z,3.73
2022-10-12T23:20:24.448Z,3.47
2022-10-12T23:25:31.023Z,3.63
2022-10-12T23:30:40.743Z,3.80
2022-10-12T23:35:46.262Z,4.40
2022-10-12T23:40:52.016Z,3.80
2022-10-12T23:45:57.627Z,3.43
2022-10-12T23:51:03.145Z,3.73
2022-10-12T23:56:08.953Z,4.40
